createdAt,value
2017-08-14T00:02:07.227Z,18.60
2017-08-14T00:04:35.299Z,18.60
2017-08-14T00:07:03.379Z,18.50
2017-08-14T00:09:31.449Z,18.40
2017-08-14T00:11:59.511Z,18.40
2017-08-14T00:14:27.594Z,18.40
2017-08-14T00:16:55.650Z,18.40
2017-08-14T00:19:23.755Z,18.40
2017-08-14T00:21:51.809Z,18.40
2017-08-14T00:24:19.879Z,18.40
2017-08-14T00:26:47.971Z,18.40
2017-08-14T00:29:16.060Z,18.40
2017-08-14T00:31:44.883Z,18.30
2017-08-14T00:34:12.951Z,18.30
2017-08-14T00:36:41.034Z,18.30
2017-08-14T00:39:09.100Z,18.20
2017-08-14T00:41:37.178Z,18.20
2017-08-14T00:44:05.259Z,18.10
2017-08-14T00:46:33.346Z,18.10
2017-08-14T00:49:01.405Z,18.10
2017-08-14T00:51:29.483Z,18.00
2017-08-14T00:53:57.567Z,17.90
2017-08-14T00:56:25.634Z,17.90
2017-08-14T00:58:53.690Z,17.90
2017-08-14T01:01:21.783Z,17.90
2017-08-14T01:03:49.858Z,17.90
2017-08-14T01:06:17.943Z,17.90
2017-08-14T01:08:46.777Z,17.80
2017-08-14T01:11:14.838Z,17.70
2017-08-14T01:13:42.910Z,17.70
2017-08-14T01:16:10.979Z,17.70
2017-08-14T01:18:39.075Z,17.70
2017-08-14T01:21:07.111Z,17.70
2017-08-14T01:23:35.954Z,17.70
2017-08-14T01:26:04.026Z,17.60
2017-08-14T01:28:32.097Z,17.60
2017-08-14T01:31:00.161Z,17.60
2017-08-14T01:33:28.267Z,17.60
2017-08-14T01:35:56.342Z,17.70
2017-08-14T01:38:24.418Z,17.60
2017-08-14T01:40:53.263Z,17.60
2017-08-14T01:43:21.343Z,17.50
2017-08-14T01:45:49.407Z,17.60
2017-08-14T01:48:17.488Z,17.60
2017-08-14T01:50:45.553Z,17.50
2017-08-14T01:53:13.642Z,17.50
2017-08-14T01:55:41.699Z,17.50
2017-08-14T01:58:09.771Z,17.40
2017-08-14T02:00:37.840Z,17.40
2017-08-14T02:03:05.903Z,17.40
2017-08-14T02:05:33.982Z,17.30
2017-08-14T02:08:02.042Z,17.30
2017-08-14T02:10:30.126Z,17.30
2017-08-14T02:12:58.194Z,17.40
2017-08-14T02:15:26.255Z,17.30
2017-08-14T02:17:54.355Z,17.30
2017-08-14T02:20:23.183Z,17.20
2017-08-14T02:22:51.254Z,17.20
2017-08-14T02:25:19.338Z,17.20
2017-08-14T02:27:47.411Z,17.20
2017-08-14T02:30:15.483Z,17.20
2017-08-14T02:32:43.559Z,17.30
2017-08-14T02:35:11.647Z,17.30
2017-08-14T02:37:39.724Z,17.30
2017-08-14T02:40:08.097Z,17.20
2017-08-14T02:42:36.171Z,17.20
2017-08-14T02:45:04.234Z,17.20
2017-08-14T02:47:32.336Z,17.20
2017-08-14T02:50:01.199Z,17.10
2017-08-14T02:52:29.250Z,17.10
2017-08-14T02:54:57.338Z,17.10
2017-08-14T02:57:25.411Z,17.10
2017-08-14T02:59:53.498Z,17.10
2017-08-14T03:02:22.334Z,17.20
2017-08-14T03:04:50.396Z,17.20
2017-08-14T03:07:18.474Z,17.20
2017-08-14T03:09:46.556Z,17.20
2017-08-14T03:12:14.608Z,17.20
2017-08-14T03:14:42.674Z,17.20
2017-08-14T03:17:10.748Z,17.20
2017-08-14T03:19:39.574Z,17.20
2017-08-14T03:22:07.659Z,17.20
2017-08-14T03:24:35.759Z,17.30
2017-08-14T03:27:03.826Z,17.30
2017-08-14T03:29:31.882Z,17.30
2017-08-14T03:31:59.965Z,17.30
2017-08-14T03:34:28.037Z,17.40
2017-08-14T03:36:56.106Z,17.30
2017-08-14T03:39:24.176Z,17.30
2017-08-14T03:41:52.246Z,17.30
2017-08-14T03:44:20.320Z,17.30
2017-08-14T03:46:48.384Z,17.30
2017-08-14T03:49:16.464Z,17.20
2017-08-14T03:51:44.524Z,17.20
2017-08-14T03:54:12.607Z,17.20
2017-08-14T03:56:40.676Z,17.10
2017-08-14T03:59:08.747Z,17.10
2017-08-14T04:01:36.820Z,17.00
2017-08-14T04:04:04.878Z,17.10
2017-08-14T04:06:32.970Z,17.10
2017-08-14T04:09:01.047Z,17.00
2017-08-14T04:11:29.102Z,17.10
2017-08-14T04:13:57.171Z,17.00
2017-08-14T04:16:25.242Z,17.10
2017-08-14T04:18:53.330Z,17.00
2017-08-14T04:21:21.395Z,17.00
2017-08-14T04:23:49.447Z,17.00
2017-08-14T04:26:17.538Z,17.00
2017-08-14T04:28:45.607Z,17.00
2017-08-14T04:31:13.680Z,17.00
2017-08-14T04:33:41.738Z,17.00
2017-08-14T04:36:09.822Z,17.10
2017-08-14T04:38:37.899Z,17.10
2017-08-14T04:41:05.962Z,17.10
2017-08-14T04:43:34.043Z,17.10
2017-08-14T04:46:02.120Z,17.10
2017-08-14T04:48:30.962Z,17.10
2017-08-14T04:50:59.042Z,17.10
2017-08-14T04:53:27.140Z,17.10
2017-08-14T04:55:55.187Z,17.10
2017-08-14T04:58:23.267Z,17.10
2017-08-14T05:00:51.323Z,17.20
2017-08-14T05:03:19.405Z,17.20
2017-08-14T05:05:47.478Z,17.30
2017-08-14T05:08:15.547Z,17.30
2017-08-14T05:10:43.746Z,17.30
2017-08-14T05:13:11.809Z,17.40
2017-08-14T05:15:39.858Z,17.40
2017-08-14T05:18:07.951Z,17.40
2017-08-14T05:20:36.020Z,17.40
2017-08-14T05:23:04.098Z,17.40
2017-08-14T05:25:32.160Z,17.40
2017-08-14T05:28:00.226Z,17.40
2017-08-14T05:30:28.302Z,17.40
2017-08-14T05:32:56.370Z,17.30
2017-08-14T05:35:24.465Z,17.30
2017-08-14T05:37:52.552Z,17.40
2017-08-14T05:40:20.614Z,17.40
2017-08-14T05:42:48.686Z,17.40
2017-08-14T05:45:16.749Z,17.50
2017-08-14T05:47:44.823Z,17.50
2017-08-14T05:50:12.895Z,17.50
2017-08-14T05:52:40.986Z,17.60
2017-08-14T05:55:09.067Z,17.60
2017-08-14T05:57:37.142Z,17.60
2017-08-14T06:00:05.214Z,17.70
2017-08-14T06:02:34.053Z,17.70
2017-08-14T06:05:02.119Z,17.60
2017-08-14T06:07:30.198Z,17.70
2017-08-14T06:09:58.286Z,17.70
2017-08-14T06:12:26.434Z,17.70
2017-08-14T06:14:54.503Z,17.70
2017-08-14T06:17:22.591Z,17.70
2017-08-14T06:19:50.912Z,17.70
2017-08-14T06:22:18.962Z,17.70
2017-08-14T06:24:47.815Z,17.70
2017-08-14T06:27:15.879Z,17.70
2017-08-14T06:29:43.941Z,17.80
2017-08-14T06:32:12.582Z,17.80
2017-08-14T06:34:41.429Z,17.90
2017-08-14T06:37:09.492Z,17.80
2017-08-14T06:39:37.586Z,17.90
2017-08-14T06:42:05.661Z,17.90
2017-08-14T06:44:33.747Z,17.90
2017-08-14T06:47:01.879Z,17.90
2017-08-14T06:49:29.948Z,17.90
2017-08-14T06:51:58.030Z,17.90
2017-08-14T06:54:26.124Z,17.90
2017-08-14T06:56:54.207Z,17.90
2017-08-14T06:59:22.267Z,17.90
2017-08-14T07:01:50.339Z,18.00
2017-08-14T07:04:18.423Z,18.00
2017-08-14T07:06:46.482Z,18.10
2017-08-14T07:09:14.546Z,18.20
2017-08-14T07:11:42.610Z,18.20
2017-08-14T07:14:10.705Z,18.30
2017-08-14T07:16:38.768Z,18.30
2017-08-14T07:19:06.815Z,18.30
2017-08-14T07:21:34.895Z,18.40
2017-08-14T07:24:02.958Z,18.50
2017-08-14T07:26:31.999Z,18.60
2017-08-14T07:29:00.062Z,18.60
2017-08-14T07:31:28.131Z,18.70
2017-08-14T07:33:56.211Z,18.70
2017-08-14T07:36:24.300Z,18.80
2017-08-14T07:38:52.358Z,18.90
2017-08-14T07:41:20.411Z,19.00
2017-08-14T07:43:48.485Z,19.10
2017-08-14T07:46:16.762Z,19.20
2017-08-14T07:48:44.843Z,19.30
2017-08-14T07:51:12.890Z,19.40
2017-08-14T07:53:41.036Z,19.40
2017-08-14T07:56:09.115Z,19.40
2017-08-14T07:58:37.183Z,19.50
2017-08-14T08:01:05.251Z,19.70
2017-08-14T08:03:33.327Z,19.70
2017-08-14T08:06:01.395Z,19.80
2017-08-14T08:08:29.463Z,19.90
2017-08-14T08:10:57.540Z,20.00
2017-08-14T08:13:25.619Z,20.10
2017-08-14T08:15:53.689Z,20.20
2017-08-14T08:18:21.772Z,20.30
2017-08-14T08:20:49.842Z,20.40
2017-08-14T08:23:17.915Z,20.40
2017-08-14T08:25:45.984Z,20.50
2017-08-14T08:28:15.034Z,20.60
2017-08-14T08:30:43.112Z,20.90
2017-08-14T08:33:11.187Z,21.00
2017-08-14T08:35:40.003Z,21.30
2017-08-14T08:38:08.071Z,21.20
2017-08-14T08:40:36.130Z,21.50
2017-08-14T08:43:04.183Z,21.50
2017-08-14T08:45:33.008Z,21.70
2017-08-14T08:48:01.076Z,21.60
2017-08-14T08:50:29.171Z,21.80
2017-08-14T08:52:57.225Z,22.00
2017-08-14T08:55:25.302Z,22.30
2017-08-14T08:57:53.365Z,22.50
2017-08-14T09:00:21.443Z,22.70
2017-08-14T09:02:49.483Z,23.00
2017-08-14T09:05:17.595Z,23.30
2017-08-14T09:07:45.648Z,23.40
2017-08-14T09:10:13.720Z,23.60
2017-08-14T09:12:41.786Z,23.80
2017-08-14T09:15:09.854Z,24.00
2017-08-14T09:17:37.907Z,24.10
2017-08-14T09:20:06.816Z,24.30
2017-08-14T09:22:34.862Z,24.30
2017-08-14T09:25:02.935Z,24.50
2017-08-14T09:27:31.027Z,24.80
2017-08-14T09:29:59.083Z,25.00
2017-08-14T09:32:27.155Z,25.40
2017-08-14T09:34:55.234Z,26.80
2017-08-14T09:37:23.310Z,29.00
2017-08-14T09:39:51.373Z,31.40
2017-08-14T09:42:19.436Z,33.90
2017-08-14T09:44:47.526Z,36.00
2017-08-14T09:47:15.611Z,37.70
2017-08-14T09:49:43.667Z,39.20
2017-08-14T09:52:11.722Z,40.10
2017-08-14T09:54:39.812Z,40.90
2017-08-14T09:57:07.995Z,41.50
2017-08-14T09:59:36.092Z,42.40
2017-08-14T10:02:04.166Z,43.50
2017-08-14T10:04:32.995Z,44.90
2017-08-14T10:07:01.078Z,44.80
2017-08-14T10:09:29.144Z,45.30
2017-08-14T10:11:57.232Z,45.60
2017-08-14T10:14:25.331Z,45.60
2017-08-14T10:16:53.406Z,45.90
2017-08-14T10:19:21.471Z,45.70
2017-08-14T10:21:49.543Z,45.50
2017-08-14T10:24:18.390Z,45.20
2017-08-14T10:26:46.458Z,45.20
2017-08-14T10:29:14.549Z,45.70
2017-08-14T10:31:42.635Z,46.00
2017-08-14T10:34:11.457Z,43.70
2017-08-14T10:36:39.558Z,43.60
2017-08-14T10:39:07.640Z,42.80
2017-08-14T10:41:35.699Z,42.10
2017-08-14T10:44:03.764Z,41.10
2017-08-14T10:46:31.870Z,41.30
2017-08-14T10:49:00.963Z,42.30
2017-08-14T10:51:29.031Z,43.60
2017-08-14T10:53:57.099Z,44.70
2017-08-14T10:56:25.166Z,45.00
2017-08-14T10:58:53.235Z,45.50
2017-08-14T11:01:21.318Z,45.80
2017-08-14T11:03:50.160Z,46.60
2017-08-14T11:06:18.231Z,46.50
2017-08-14T11:08:46.288Z,46.90
2017-08-14T11:11:14.379Z,47.30
2017-08-14T11:13:42.448Z,47.30
2017-08-14T11:16:10.484Z,45.90
2017-08-14T11:18:39.319Z,46.20
2017-08-14T11:21:07.384Z,46.10
2017-08-14T11:23:35.461Z,47.10
2017-08-14T11:26:04.275Z,47.80
2017-08-14T11:28:32.336Z,47.80
2017-08-14T11:31:00.410Z,48.50
2017-08-14T11:33:28.496Z,48.40
2017-08-14T11:35:56.562Z,47.10
2017-08-14T11:38:24.628Z,46.90
2017-08-14T11:40:52.676Z,47.40
2017-08-14T11:43:20.747Z,48.00
2017-08-14T11:45:48.815Z,48.40
2017-08-14T11:48:16.890Z,48.90
2017-08-14T11:50:44.961Z,48.50
2017-08-14T11:53:13.027Z,47.70
2017-08-14T11:55:41.106Z,46.10
2017-08-14T11:58:09.172Z,44.20
2017-08-14T12:00:37.245Z,42.60
2017-08-14T12:03:05.336Z,40.50
2017-08-14T12:05:33.398Z,38.60
2017-08-14T12:08:01.466Z,37.00
2017-08-14T12:10:29.544Z,35.60
2017-08-14T12:12:57.611Z,34.40
2017-08-14T12:15:25.680Z,33.50
2017-08-14T12:17:53.751Z,32.50
2017-08-14T12:20:21.843Z,31.90
2017-08-14T12:22:50.034Z,31.40
2017-08-14T12:25:18.080Z,30.90
2017-08-14T12:27:46.916Z,30.20
2017-08-14T12:30:14.965Z,30.10
2017-08-14T12:32:43.064Z,29.90
2017-08-14T12:35:11.124Z,29.80
2017-08-14T12:37:39.183Z,29.60
2017-08-14T12:40:07.263Z,29.40
2017-08-14T12:42:35.319Z,29.20
2017-08-14T12:45:03.407Z,29.20
2017-08-14T12:47:31.471Z,29.20
2017-08-14T12:49:59.551Z,29.30
2017-08-14T12:52:27.604Z,29.40
2017-08-14T12:54:55.706Z,29.40
2017-08-14T12:57:23.799Z,29.40
2017-08-14T12:59:51.870Z,29.40
2017-08-14T13:02:19.938Z,29.60
2017-08-14T13:04:48.010Z,29.90
2017-08-14T13:07:16.807Z,29.90
2017-08-14T13:09:44.868Z,29.80
2017-08-14T13:12:12.938Z,29.70
2017-08-14T13:14:40.982Z,29.50
2017-08-14T13:17:09.098Z,29.50
2017-08-14T13:19:37.164Z,29.40
2017-08-14T13:22:05.227Z,29.60
2017-08-14T13:24:33.355Z,29.70
2017-08-14T13:27:01.467Z,29.70
2017-08-14T13:29:30.299Z,29.70
2017-08-14T13:31:58.379Z,29.70
2017-08-14T13:34:26.443Z,29.80
2017-08-14T13:36:54.499Z,29.90
2017-08-14T13:39:22.602Z,29.90
2017-08-14T13:41:51.203Z,29.80
2017-08-14T13:44:19.257Z,29.70
2017-08-14T13:46:47.323Z,29.60
2017-08-14T13:49:15.393Z,29.50
2017-08-14T13:51:43.460Z,29.40
2017-08-14T13:54:11.528Z,29.30
2017-08-14T13:56:39.581Z,29.30
2017-08-14T13:59:07.673Z,29.30
2017-08-14T14:01:35.732Z,29.30
2017-08-14T14:04:03.812Z,29.30
2017-08-14T14:06:31.892Z,29.30
2017-08-14T14:08:59.945Z,29.30
2017-08-14T14:11:28.030Z,29.30
2017-08-14T14:13:56.099Z,29.50
2017-08-14T14:16:24.158Z,29.50
2017-08-14T14:18:52.227Z,29.40
2017-08-14T14:21:20.292Z,29.50
2017-08-14T14:23:48.371Z,29.50
2017-08-14T14:26:16.439Z,29.40
2017-08-14T14:28:44.527Z,29.40
2017-08-14T14:31:13.359Z,29.00
2017-08-14T14:33:41.429Z,29.00
2017-08-14T14:36:09.501Z,28.90
2017-08-14T14:38:37.555Z,28.70
2017-08-14T14:41:05.631Z,28.60
2017-08-14T14:43:33.714Z,28.40
2017-08-14T14:46:01.799Z,28.40
2017-08-14T14:48:29.874Z,28.40
2017-08-14T14:50:57.948Z,28.30
2017-08-14T14:53:26.040Z,28.30
2017-08-14T14:55:54.110Z,28.30
2017-08-14T14:58:22.169Z,28.40
2017-08-14T15:00:50.231Z,28.30
2017-08-14T15:03:18.314Z,28.30
2017-08-14T15:05:46.392Z,28.20
2017-08-14T15:08:14.442Z,28.10
2017-08-14T15:10:42.508Z,28.10
2017-08-14T15:13:10.575Z,28.20
2017-08-14T15:15:38.662Z,28.10
2017-08-14T15:18:06.733Z,28.20
2017-08-14T15:20:34.794Z,28.20
2017-08-14T15:23:02.863Z,28.30
2017-08-14T15:25:30.926Z,28.20
2017-08-14T15:27:59.017Z,28.20
2017-08-14T15:30:27.075Z,28.10
2017-08-14T15:32:55.143Z,28.10
2017-08-14T15:35:23.218Z,28.00
2017-08-14T15:37:51.275Z,28.00
2017-08-14T15:40:19.362Z,27.90
2017-08-14T15:42:47.438Z,28.00
2017-08-14T15:45:15.514Z,28.00
2017-08-14T15:47:43.576Z,28.10
2017-08-14T15:50:11.678Z,28.10
2017-08-14T15:52:40.172Z,28.10
2017-08-14T15:55:08.383Z,28.20
2017-08-14T15:57:36.455Z,28.30
2017-08-14T16:00:05.263Z,28.30
2017-08-14T16:02:33.330Z,28.20
2017-08-14T16:05:01.403Z,28.20
2017-08-14T16:07:29.523Z,28.10
2017-08-14T16:09:58.359Z,28.00
2017-08-14T16:12:26.419Z,27.90
2017-08-14T16:14:54.494Z,27.90
2017-08-14T16:17:22.559Z,27.70
2017-08-14T16:19:50.651Z,27.70
2017-08-14T16:22:18.703Z,27.70
2017-08-14T16:24:47.627Z,27.70
2017-08-14T16:27:15.696Z,27.70
2017-08-14T16:29:43.756Z,27.70
2017-08-14T16:32:11.918Z,27.70
2017-08-14T16:34:39.968Z,27.60
2017-08-14T16:37:08.103Z,27.70
2017-08-14T16:39:36.189Z,27.80
2017-08-14T16:42:04.242Z,27.70
2017-08-14T16:44:33.076Z,27.70
2017-08-14T16:47:01.158Z,27.60
2017-08-14T16:49:29.250Z,27.70
2017-08-14T16:51:57.324Z,27.70
2017-08-14T16:54:25.394Z,27.60
2017-08-14T16:56:53.460Z,27.60
2017-08-14T16:59:21.533Z,27.60
2017-08-14T17:01:49.604Z,27.60
2017-08-14T17:04:17.700Z,27.60
2017-08-14T17:06:46.541Z,27.50
2017-08-14T17:09:14.619Z,27.50
2017-08-14T17:11:42.687Z,27.50
2017-08-14T17:14:10.785Z,27.40
2017-08-14T17:16:38.864Z,27.30
2017-08-14T17:19:07.702Z,27.40
2017-08-14T17:21:35.801Z,27.30
2017-08-14T17:24:03.874Z,27.40
2017-08-14T17:26:31.946Z,27.40
2017-08-14T17:29:00.771Z,27.30
2017-08-14T17:31:28.854Z,27.20
2017-08-14T17:33:56.950Z,27.30
2017-08-14T17:36:24.988Z,27.10
2017-08-14T17:38:53.058Z,27.10
2017-08-14T17:41:21.131Z,27.10
2017-08-14T17:43:49.237Z,27.00
2017-08-14T17:46:17.286Z,27.00
2017-08-14T17:48:45.356Z,27.00
2017-08-14T17:51:13.420Z,27.00
2017-08-14T17:53:41.511Z,27.00
2017-08-14T17:56:09.605Z,26.90
2017-08-14T17:58:37.664Z,26.90
2017-08-14T18:01:06.520Z,26.60
2017-08-14T18:03:34.589Z,26.70
2017-08-14T18:06:02.677Z,26.70
2017-08-14T18:08:30.731Z,26.70
2017-08-14T18:10:58.853Z,26.70
2017-08-14T18:13:26.907Z,26.60
2017-08-14T18:15:54.989Z,26.50
2017-08-14T18:18:23.846Z,26.30
2017-08-14T18:20:51.944Z,26.20
2017-08-14T18:23:20.004Z,26.20
2017-08-14T18:25:48.082Z,26.00
2017-08-14T18:28:16.477Z,25.90
2017-08-14T18:30:45.328Z,25.90
2017-08-14T18:33:13.422Z,25.80
2017-08-14T18:35:41.488Z,25.80
2017-08-14T18:38:10.326Z,25.70
2017-08-14T18:40:38.894Z,25.70
2017-08-14T18:43:07.687Z,25.60
2017-08-14T18:45:35.780Z,25.50
2017-08-14T18:48:04.708Z,25.50
2017-08-14T18:50:32.778Z,25.40
2017-08-14T18:53:00.846Z,25.40
2017-08-14T18:55:28.941Z,25.30
2017-08-14T18:57:56.996Z,25.30
2017-08-14T19:00:26.679Z,25.20
2017-08-14T19:02:54.759Z,25.10
2017-08-14T19:05:22.835Z,25.20
2017-08-14T19:07:52.255Z,25.10
2017-08-14T19:10:18.991Z,25.10
2017-08-14T19:12:47.844Z,25.00
2017-08-14T19:15:15.984Z,25.00
2017-08-14T19:17:44.032Z,24.90
2017-08-14T19:20:12.899Z,24.90
2017-08-14T19:22:40.952Z,24.80
2017-08-14T19:25:09.015Z,24.80
2017-08-14T19:27:37.108Z,24.80
2017-08-14T19:30:05.260Z,24.70
2017-08-14T19:32:33.344Z,24.70
2017-08-14T19:35:01.411Z,24.70
2017-08-14T19:37:29.494Z,24.60
2017-08-14T19:39:57.575Z,24.60
2017-08-14T19:42:25.675Z,24.60
2017-08-14T19:44:53.822Z,24.60
2017-08-14T19:47:21.884Z,24.50
2017-08-14T19:49:49.939Z,24.50
2017-08-14T19:52:18.015Z,24.50
2017-08-14T19:54:46.091Z,24.40
2017-08-14T19:57:14.176Z,24.40
2017-08-14T19:59:42.242Z,24.30
2017-08-14T20:02:10.309Z,24.30
2017-08-14T20:04:38.370Z,24.30
2017-08-14T20:07:06.539Z,24.20
2017-08-14T20:09:34.632Z,24.20
2017-08-14T20:12:02.704Z,24.10
2017-08-14T20:14:30.768Z,24.10
2017-08-14T20:16:58.876Z,24.00
2017-08-14T20:19:26.943Z,23.90
2017-08-14T20:21:55.016Z,23.90
2017-08-14T20:24:23.088Z,23.90
2017-08-14T20:26:51.129Z,23.80
2017-08-14T20:29:19.215Z,23.80
2017-08-14T20:31:48.070Z,23.80
2017-08-14T20:34:16.123Z,23.80
2017-08-14T20:36:44.277Z,23.80
2017-08-14T20:39:13.085Z,23.80
2017-08-14T20:41:41.166Z,23.80
2017-08-14T20:44:09.243Z,23.80
2017-08-14T20:46:37.315Z,23.90
2017-08-14T20:49:05.379Z,23.90
2017-08-14T20:51:33.473Z,23.90
2017-08-14T20:54:01.531Z,23.90
2017-08-14T20:56:29.629Z,23.90
2017-08-14T20:58:57.711Z,24.00
2017-08-14T21:01:26.550Z,24.10
2017-08-14T21:03:54.625Z,24.00
2017-08-14T21:06:22.685Z,24.10
2017-08-14T21:08:50.779Z,24.10
2017-08-14T21:11:18.851Z,24.10
2017-08-14T21:13:46.928Z,24.10
2017-08-14T21:16:14.981Z,24.10
2017-08-14T21:18:43.075Z,24.00
2017-08-14T21:21:11.148Z,24.00
2017-08-14T21:23:39.211Z,23.90
2017-08-14T21:26:07.290Z,23.90
2017-08-14T21:28:35.340Z,23.80
2017-08-14T21:31:03.405Z,23.70
2017-08-14T21:33:31.480Z,23.70
2017-08-14T21:35:59.523Z,23.70
2017-08-14T21:38:27.596Z,23.70
2017-08-14T21:40:55.691Z,23.70
2017-08-14T21:43:23.757Z,23.70
2017-08-14T21:45:51.812Z,23.60
2017-08-14T21:48:19.859Z,23.60
2017-08-14T21:50:47.918Z,23.70
2017-08-14T21:53:15.976Z,23.30
2017-08-14T21:55:44.075Z,22.90
2017-08-14T21:58:12.142Z,22.80
2017-08-14T22:00:40.186Z,22.80
2017-08-14T22:03:08.280Z,22.90
2017-08-14T22:05:36.359Z,23.10
2017-08-14T22:08:05.143Z,23.20
2017-08-14T22:10:33.166Z,23.30
2017-08-14T22:13:02.001Z,23.40
2017-08-14T22:15:30.082Z,23.40
2017-08-14T22:17:58.178Z,23.50
2017-08-14T22:20:26.254Z,23.50
2017-08-14T22:22:54.326Z,23.50
2017-08-14T22:25:22.418Z,23.50
2017-08-14T22:27:51.482Z,23.20
2017-08-14T22:30:19.520Z,23.10
2017-08-14T22:32:47.604Z,22.90
2017-08-14T22:35:16.548Z,22.60
2017-08-14T22:37:44.619Z,22.20
2017-08-14T22:40:12.674Z,21.90
2017-08-14T22:42:40.790Z,21.80
2017-08-14T22:45:09.623Z,21.80
2017-08-14T22:47:37.705Z,21.80
2017-08-14T22:50:05.780Z,21.90
2017-08-14T22:52:34.123Z,21.90
2017-08-14T22:55:02.224Z,21.90
2017-08-14T22:57:30.279Z,21.80
2017-08-14T22:59:58.351Z,21.80
2017-08-14T23:02:26.416Z,21.70
2017-08-14T23:04:54.496Z,21.80
2017-08-14T23:07:22.573Z,21.80
2017-08-14T23:09:50.642Z,21.80
2017-08-14T23:12:18.718Z,21.80
2017-08-14T23:14:46.782Z,21.80
2017-08-14T23:17:14.836Z,21.80
2017-08-14T23:19:42.904Z,21.80
2017-08-14T23:22:10.979Z,21.90
2017-08-14T23:24:39.026Z,21.90
2017-08-14T23:27:07.118Z,21.90
2017-08-14T23:29:35.183Z,22.00
2017-08-14T23:32:04.023Z,22.00
2017-08-14T23:34:32.079Z,21.90
2017-08-14T23:37:00.136Z,22.00
2017-08-14T23:39:28.190Z,22.00
2017-08-14T23:41:57.045Z,21.90
2017-08-14T23:44:25.139Z,21.90
2017-08-14T23:46:53.688Z,21.90
2017-08-14T23:49:21.760Z,21.90
2017-08-14T23:51:49.810Z,21.90
2017-08-14T23:54:17.881Z,21.90
2017-08-14T23:56:45.943Z,21.90
2017-08-14T23:59:14.040Z,21.90
